Alsea, Oregon
Current Conditions -  °F | °C
As of 4:15 PM on Thursday 27 Nov 2014 (Local Time) from KCVO Reporting Station
Overcast Overcast  
Wind Chill: 12°   Ceiling: 6500
Heat Index: 12°   Visibility: 10mi
Dew Point: 10°   Wind: 16mph
Humidity: 88%   Direction: 180°S
Pressure: 29.95"   Gusts: 21mph
Location:  44.38°N, 123.6°W
Report Text: KCVO 280015Z AUTO 18014G18KT 10SM FEW042 SCT050 OVC065 12/10 A2995 RMK AO1
Loading
Personal Weather Stations






























Interactive Weather Map New forecast layout! Learn more

10-Day Weather Forecast

Advertisements
Track Severe Weather on mobile